Climatologie pour Saint-Brevin les Pins
Jour • Résumé pour décembre 4, 2017 Système :  Métrique    Anglais   Mixte
« - 1 jour
+ 1 jour »
Jour Semaine Mois Année Personnalisé
  Maximum : Minimum : Moyenne :
Température sous abri : 13.0 °C 3.4 °C 8.7 °C
Point de rosée : 9.5 °C 2.9 °C 7.4 °C
Humidité : 98 % 76 % 92 %
Vitesse du vent : 11.3 km/h 0.0 km/h 1.6 km/h
Rafale : 17.7 km/h - -
Direction :- - NW
Pression : 1038.1 hPa 1032.4 hPa -
Précipitations : 0.3 mm    
Historical Graphs
 
 
Tableau de données pour décembre 4, 2017
Heure Tempé Pt rosée Pression Vent Vitesse Rafale Humidité Taux pluie (/hr) Soleil
00:00 8.3 °C 8.0 °C 1032.4 hPa Calm   6.4 km/h 98 % 0.0 mm 0 W/m2
00:10 8.4 °C 7.9 °C 1032.4 hPa North 3.2 km/h 6.4 km/h 97 % 0.0 mm 0 W/m2
00:15 8.4 °C 7.9 °C 1032.4 hPa WNW 1.6 km/h 6.4 km/h 97 % 0.0 mm 0 W/m2
00:20 8.3 °C 7.8 °C 1032.7 hPa Calm   6.4 km/h 97 % 0.0 mm 0 W/m2
00:25 8.3 °C 7.8 °C 1032.7 hPa Calm   4.8 km/h 97 % 0.0 mm 0 W/m2
00:35 8.1 °C 7.7 °C 1032.7 hPa Calm   6.4 km/h 97 % 0.0 mm 0 W/m2
00:45 8.1 °C 7.6 °C 1032.7 hPa Calm   1.6 km/h 97 % 0.0 mm 0 W/m2
00:50 8.1 °C 7.6 °C 1032.7 hPa Calm   1.6 km/h 97 % 0.0 mm 0 W/m2
00:55 8.0 °C 7.7 °C 1032.7 hPa Calm   1.6 km/h 98 % 0.0 mm 0 W/m2
01:00 7.9 °C 7.6 °C 1032.7 hPa Calm   4.8 km/h 98 % 0.0 mm 0 W/m2
01:05 7.8 °C 7.5 °C 1032.7 hPa Calm   4.8 km/h 98 % 0.0 mm 0 W/m2
01:10 7.8 °C 7.4 °C 1032.7 hPa Calm   4.8 km/h 97 % 0.0 mm 0 W/m2
01:15 7.8 °C 7.3 °C 1032.7 hPa Calm   1.6 km/h 97 % 0.0 mm 0 W/m2
01:20 7.8 °C 7.4 °C 1032.7 hPa Calm     97 % 0.0 mm 0 W/m2
01:25 7.8 °C 7.3 °C 1032.7 hPa Calm   4.8 km/h 97 % 0.0 mm 0 W/m2
01:30 7.7 °C 7.4 °C 1032.7 hPa Calm   4.8 km/h 98 % 0.0 mm 0 W/m2
01:35 7.7 °C 7.4 °C 1032.7 hPa Calm   4.8 km/h 98 % 0.0 mm 0 W/m2
01:40 7.7 °C 7.4 °C 1032.7 hPa Calm   4.8 km/h 98 % 0.0 mm 0 W/m2
01:45 7.9 °C 7.6 °C 1032.7 hPa Calm   8.0 km/h 98 % 0.0 mm 0 W/m2
01:50 7.9 °C 7.6 °C 1032.7 hPa Calm   8.0 km/h 98 % 0.0 mm 0 W/m2
01:55 7.8 °C 7.5 °C 1032.7 hPa Calm   4.8 km/h 98 % 0.0 mm 0 W/m2
02:00 7.7 °C 7.3 °C 1032.7 hPa Calm   1.6 km/h 97 % 0.0 mm 0 W/m2
02:05 7.6 °C 7.3 °C 1032.7 hPa NW 1.6 km/h 1.6 km/h 98 % 0.0 mm 0 W/m2
02:10 7.6 °C 7.1 °C 1032.7 hPa Calm   4.8 km/h 97 % 0.0 mm 0 W/m2
02:15 7.4 °C 6.9 °C 1032.7 hPa Calm   4.8 km/h 97 % 0.0 mm 0 W/m2
02:20 7.3 °C 7.0 °C 1032.7 hPa Calm   3.2 km/h 98 % 0.0 mm 0 W/m2
02:25 7.3 °C 7.0 °C 1032.7 hPa NW 1.6 km/h 3.2 km/h 98 % 0.0 mm 0 W/m2
02:30 7.3 °C 7.0 °C 1032.7 hPa Calm   3.2 km/h 98 % 0.0 mm 0 W/m2
02:35 7.3 °C 7.0 °C 1032.7 hPa Calm   4.8 km/h 98 % 0.0 mm 0 W/m2
02:40 7.3 °C 7.0 °C 1032.7 hPa Calm   4.8 km/h 98 % 0.0 mm 0 W/m2
02:50 7.3 °C 7.0 °C 1032.7 hPa Calm   3.2 km/h 98 % 0.0 mm 0 W/m2
02:55 7.3 °C 7.0 °C 1032.7 hPa Calm   1.6 km/h 98 % 0.0 mm 0 W/m2
03:00 7.3 °C 7.0 °C 1032.7 hPa Calm     98 % 0.0 mm 0 W/m2
03:05 7.5 °C 7.2 °C 1032.7 hPa Calm     98 % 0.0 mm 0 W/m2
03:10 7.5 °C 7.2 °C 1032.7 hPa Calm     98 % 0.0 mm 0 W/m2
03:15 7.6 °C 7.3 °C 1032.7 hPa Calm     98 % 0.0 mm 0 W/m2
03:20 7.7 °C 7.4 °C 1032.7 hPa Calm     98 % 0.0 mm 0 W/m2
03:25 7.6 °C 7.3 °C 1033.1 hPa Calm   3.2 km/h 98 % 0.0 mm 0 W/m2
03:30 7.5 °C 7.2 °C 1033.1 hPa NW 3.2 km/h 4.8 km/h 98 % 0.0 mm 0 W/m2
03:35 7.5 °C 7.2 °C 1033.1 hPa Calm   4.8 km/h 98 % 0.0 mm 0 W/m2
03:40 7.4 °C 7.1 °C 1033.1 hPa Calm   4.8 km/h 98 % 0.0 mm 0 W/m2
03:45 7.6 °C 7.3 °C 1033.1 hPa NW 3.2 km/h 6.4 km/h 98 % 0.0 mm 0 W/m2
03:50 7.8 °C 7.5 °C 1033.1 hPa Calm   6.4 km/h 98 % 0.0 mm 0 W/m2
03:55 7.7 °C 7.4 °C 1033.1 hPa Calm   4.8 km/h 98 % 0.0 mm 0 W/m2
04:00 7.9 °C 7.6 °C 1033.1 hPa Calm   4.8 km/h 98 % 0.0 mm 0 W/m2
04:05 7.9 °C 7.6 °C 1033.1 hPa Calm   4.8 km/h 98 % 0.0 mm 0 W/m2
04:10 7.8 °C 7.5 °C 1033.1 hPa Calm   1.6 km/h 98 % 0.0 mm 0 W/m2
04:20 7.6 °C 7.3 °C 1033.1 hPa Calm   3.2 km/h 98 % 0.0 mm 0 W/m2
04:25 7.6 °C 7.3 °C 1032.7 hPa Calm   4.8 km/h 98 % 0.0 mm 0 W/m2
04:30 7.7 °C 7.4 °C 1032.7 hPa Calm   4.8 km/h 98 % 0.0 mm 0 W/m2
04:35 7.6 °C 7.3 °C 1033.1 hPa Calm     98 % 0.0 mm 0 W/m2
04:40 7.5 °C 7.2 °C 1033.1 hPa Calm   1.6 km/h 98 % 0.0 mm 0 W/m2
04:45 7.5 °C 7.2 °C 1033.1 hPa Calm   1.6 km/h 98 % 0.0 mm 0 W/m2
04:50 7.5 °C 7.2 °C 1033.1 hPa Calm   1.6 km/h 98 % 0.0 mm 0 W/m2
04:55 7.6 °C 7.3 °C 1033.1 hPa Calm   1.6 km/h 98 % 0.0 mm 0 W/m2
05:00 7.5 °C 7.2 °C 1033.1 hPa Calm   4.8 km/h 98 % 0.0 mm 0 W/m2
05:05 7.6 °C 7.3 °C 1033.1 hPa Calm   6.4 km/h 98 % 0.0 mm 0 W/m2
05:10 7.6 °C 7.3 °C 1033.1 hPa Calm   6.4 km/h 98 % 0.0 mm 0 W/m2
05:15 7.8 °C 7.5 °C 1033.1 hPa NW 1.6 km/h 4.8 km/h 98 % 0.0 mm 0 W/m2
05:20 7.8 °C 7.5 °C 1033.1 hPa WNW 4.8 km/h 6.4 km/h 98 % 0.0 mm 0 W/m2
05:25 8.1 °C 7.8 °C 1033.1 hPa NW 6.4 km/h 8.0 km/h 98 % 0.0 mm 0 W/m2
05:30 8.1 °C 7.8 °C 1033.1 hPa Calm   8.0 km/h 98 % 0.0 mm 0 W/m2
05:35 8.2 °C 7.9 °C 1033.1 hPa Calm   8.0 km/h 98 % 0.0 mm 0 W/m2
05:40 8.2 °C 7.9 °C 1033.1 hPa Calm   8.0 km/h 98 % 0.0 mm 0 W/m2
05:45 8.1 °C 7.8 °C 1033.1 hPa Calm   6.4 km/h 98 % 0.0 mm 0 W/m2
05:50 8.1 °C 7.8 °C 1033.1 hPa NNW 1.6 km/h 11.3 km/h 98 % 0.0 mm 0 W/m2
05:55 8.1 °C 7.8 °C 1033.1 hPa North 3.2 km/h 11.3 km/h 98 % 0.0 mm 0 W/m2
06:00 8.1 °C 7.8 °C 1033.1 hPa Calm   6.4 km/h 98 % 0.0 mm 0 W/m2
06:05 8.0 °C 7.7 °C 1033.1 hPa NW 1.6 km/h 9.7 km/h 98 % 0.0 mm 0 W/m2
06:10 8.0 °C 7.7 °C 1033.1 hPa North 6.4 km/h 9.7 km/h 98 % 0.0 mm 0 W/m2
06:15 7.9 °C 7.6 °C 1033.4 hPa WNW 4.8 km/h 9.7 km/h 98 % 0.0 mm 0 W/m2
06:25 7.9 °C 7.6 °C 1033.4 hPa NNW 4.8 km/h 9.7 km/h 98 % 0.0 mm 0 W/m2
06:30 7.8 °C 7.5 °C 1033.4 hPa NNW 4.8 km/h 11.3 km/h 98 % 0.0 mm 0 W/m2
06:35 7.9 °C 7.6 °C 1033.4 hPa NNW 4.8 km/h 11.3 km/h 98 % 0.0 mm 0 W/m2
06:40 7.9 °C 7.6 °C 1033.7 hPa WNW 3.2 km/h 8.0 km/h 98 % 0.0 mm 0 W/m2
06:45 7.9 °C 7.6 °C 1033.7 hPa NNW 4.8 km/h 9.7 km/h 98 % 0.0 mm 0 W/m2
07:00 7.9 °C 7.6 °C 1033.7 hPa NNW 3.2 km/h 8.0 km/h 98 % 0.0 mm 0 W/m2
07:05 7.8 °C 7.5 °C 1033.7 hPa NNW 1.6 km/h 8.0 km/h 98 % 0.0 mm 0 W/m2
07:10 7.9 °C 7.6 °C 1033.7 hPa NNW 4.8 km/h 4.8 km/h 98 % 0.0 mm 0 W/m2
07:15 7.9 °C 7.6 °C 1033.7 hPa WNW 6.4 km/h 8.0 km/h 98 % 0.0 mm 0 W/m2
07:20 7.8 °C 7.5 °C 1033.7 hPa Calm   8.0 km/h 98 % 0.0 mm 0 W/m2
07:25 7.9 °C 7.6 °C 1033.7 hPa Calm   4.8 km/h 98 % 0.0 mm 0 W/m2
07:30 7.8 °C 7.5 °C 1033.7 hPa Calm     98 % 0.0 mm 0 W/m2
07:35 7.7 °C 7.4 °C 1034.1 hPa Calm     98 % 0.0 mm 0 W/m2
07:40 7.7 °C 7.4 °C 1034.1 hPa Calm   1.6 km/h 98 % 0.0 mm 0 W/m2
07:45 7.7 °C 7.4 °C 1034.1 hPa Calm   6.4 km/h 98 % 0.0 mm 0 W/m2
07:50 7.7 °C 7.4 °C 1034.4 hPa NW 1.6 km/h 6.4 km/h 98 % 0.0 mm 0 W/m2
07:55 7.7 °C 7.4 °C 1034.4 hPa Calm   4.8 km/h 98 % 0.0 mm 0 W/m2
08:00 7.8 °C 7.5 °C 1034.4 hPa Calm   4.8 km/h 98 % 0.0 mm 0 W/m2
08:05 8.0 °C 7.7 °C 1034.4 hPa NW 1.6 km/h 4.8 km/h 98 % 0.0 mm 0 W/m2
08:10 7.9 °C 7.6 °C 1034.4 hPa NNW 4.8 km/h 6.4 km/h 98 % 0.0 mm 0 W/m2
08:15 7.9 °C 7.6 °C 1034.4 hPa Calm   6.4 km/h 98 % 0.0 mm 0 W/m2
08:20 7.9 °C 7.6 °C 1034.4 hPa Calm   6.4 km/h 98 % 0.0 mm 0 W/m2
08:25 7.9 °C 7.6 °C 1034.8 hPa Calm   3.2 km/h 98 % 0.0 mm 0 W/m2
08:30 7.9 °C 7.6 °C 1034.8 hPa Calm   1.6 km/h 98 % 0.0 mm 0 W/m2
08:35 7.9 °C 7.6 °C 1034.8 hPa NW 3.2 km/h 4.8 km/h 98 % 0.0 mm 0 W/m2
08:40 7.9 °C 7.6 °C 1034.8 hPa Calm   4.8 km/h 98 % 0.0 mm 0 W/m2
08:45 7.9 °C 7.6 °C 1034.8 hPa Calm   4.8 km/h 98 % 0.0 mm 0 W/m2
08:50 8.0 °C 7.7 °C 1034.8 hPa Calm   4.8 km/h 98 % 0.0 mm 0 W/m2
08:55 8.1 °C 7.8 °C 1034.8 hPa Calm   4.8 km/h 98 % 0.0 mm 7 W/m2
09:00 8.1 °C 7.8 °C 1035.1 hPa Calm   3.2 km/h 98 % 0.0 mm 12 W/m2
09:05 8.1 °C 7.8 °C 1035.1 hPa Calm   1.6 km/h 98 % 0.0 mm 16 W/m2
09:10 8.1 °C 7.8 °C 1035.1 hPa Calm     98 % 0.0 mm 19 W/m2
09:15 8.2 °C 7.9 °C 1035.1 hPa Calm   3.2 km/h 98 % 0.0 mm 18 W/m2
09:20 8.3 °C 8.0 °C 1035.1 hPa Calm   3.2 km/h 98 % 0.0 mm 21 W/m2
09:30 8.5 °C 8.2 °C 1035.1 hPa Calm     98 % 0.0 mm 30 W/m2
09:35 8.6 °C 8.3 °C 1035.1 hPa Calm   3.2 km/h 98 % 0.0 mm 33 W/m2
09:40 8.6 °C 8.3 °C 1035.4 hPa Calm   3.2 km/h 98 % 0.0 mm 33 W/m2
09:45 8.7 °C 8.4 °C 1035.4 hPa WNW 1.6 km/h 4.8 km/h 98 % 0.0 mm 42 W/m2
09:50 8.8 °C 8.5 °C 1035.4 hPa Calm   6.4 km/h 98 % 0.0 mm 51 W/m2
09:55 8.8 °C 8.5 °C 1035.4 hPa NW 3.2 km/h 9.7 km/h 98 % 0.0 mm 56 W/m2
10:00 8.9 °C 8.6 °C 1035.8 hPa NW 3.2 km/h 9.7 km/h 98 % 0.0 mm 63 W/m2
10:05 8.9 °C 8.6 °C 1035.4 hPa NW 6.4 km/h 6.4 km/h 98 % 0.0 mm 65 W/m2
10:10 8.9 °C 8.6 °C 1035.4 hPa NW 1.6 km/h 6.4 km/h 98 % 0.0 mm 53 W/m2
10:15 8.7 °C 8.3 °C 1035.8 hPa Calm   6.4 km/h 97 % 0.0 mm 54 W/m2
10:20 8.7 °C 8.4 °C 1035.8 hPa NW 3.2 km/h 6.4 km/h 98 % 0.0 mm 171 W/m2
10:25 8.8 °C 8.5 °C 1035.8 hPa WNW 1.6 km/h 6.4 km/h 98 % 0.0 mm 176 W/m2
10:30 9.2 °C 8.9 °C 1035.8 hPa Calm   8.0 km/h 98 % 0.0 mm 186 W/m2
10:35 9.4 °C 9.0 °C 1035.8 hPa NW 4.8 km/h 9.7 km/h 97 % 0.0 mm 193 W/m2
10:40 9.7 °C 9.2 °C 1035.8 hPa NW 3.2 km/h 11.3 km/h 97 % 0.0 mm 206 W/m2
10:45 9.8 °C 9.2 °C 1035.8 hPa WNW 1.6 km/h 11.3 km/h 96 % 0.0 mm 216 W/m2
10:50 9.8 °C 9.1 °C 1036.1 hPa Calm   9.7 km/h 95 % 0.0 mm 216 W/m2
10:55 9.9 °C 9.2 °C 1036.1 hPa NW 1.6 km/h 8.0 km/h 95 % 0.0 mm 234 W/m2
11:05 10.3 °C 9.0 °C 1036.1 hPa NW 11.3 km/h 12.9 km/h 92 % 0.0 mm 243 W/m2
11:10 10.6 °C 9.3 °C 1036.1 hPa Calm   12.9 km/h 92 % 0.0 mm 246 W/m2
11:15 10.7 °C 9.3 °C 1036.1 hPa NW 6.4 km/h 11.3 km/h 91 % 0.0 mm 262 W/m2
11:20 10.8 °C 9.2 °C 1036.1 hPa NNW 6.4 km/h 9.7 km/h 90 % 0.0 mm 267 W/m2
11:25 10.8 °C 9.1 °C 1036.1 hPa North 1.6 km/h 8.0 km/h 89 % 0.0 mm 274 W/m2
11:30 10.8 °C 9.2 °C 1036.1 hPa North 6.4 km/h 8.0 km/h 90 % 0.0 mm 255 W/m2
11:35 10.9 °C 9.0 °C 1036.1 hPa NW 6.4 km/h 9.7 km/h 88 % 0.0 mm 279 W/m2
11:40 11.1 °C 9.0 °C 1036.5 hPa NW 4.8 km/h 9.7 km/h 87 % 0.0 mm 288 W/m2
11:45 11.2 °C 9.1 °C 1036.1 hPa NNW 4.8 km/h 11.3 km/h 87 % 0.0 mm 294 W/m2
11:50 11.3 °C 9.2 °C 1036.5 hPa NNW 3.2 km/h 11.3 km/h 87 % 0.0 mm 297 W/m2
11:55 11.3 °C 9.1 °C 1036.5 hPa Calm   8.0 km/h 86 % 0.0 mm 302 W/m2
12:00 11.4 °C 9.0 °C 1036.1 hPa WNW 4.8 km/h 9.7 km/h 85 % 0.0 mm 306 W/m2
12:05 11.5 °C 9.1 °C 1036.1 hPa NW 4.8 km/h 9.7 km/h 85 % 0.0 mm 311 W/m2
12:10 11.7 °C 9.1 °C 1036.1 hPa North 4.8 km/h 12.9 km/h 84 % 0.0 mm 313 W/m2
12:15 11.8 °C 9.3 °C 1036.1 hPa Calm   12.9 km/h 85 % 0.0 mm 315 W/m2
12:25 12.0 °C 8.8 °C 1036.1 hPa NW 6.4 km/h 12.9 km/h 81 % 0.0 mm 320 W/m2
12:30 12.1 °C 9.3 °C 1036.1 hPa NNW 9.7 km/h 11.3 km/h 83 % 0.3 mm 323 W/m2
12:35 12.2 °C 9.0 °C 1036.1 hPa NNE 8.0 km/h 14.5 km/h 81 % 0.3 mm 325 W/m2
12:40 12.2 °C 9.1 °C 1036.1 hPa North 6.4 km/h 14.5 km/h 81 % 0.3 mm 329 W/m2
12:45 12.4 °C 9.3 °C 1036.1 hPa North 4.8 km/h 11.3 km/h 81 % 0.3 mm 327 W/m2
12:50 12.6 °C 9.2 °C 1036.1 hPa NW 1.6 km/h 11.3 km/h 80 % 0.3 mm 362 W/m2
12:55 13.0 °C 9.3 °C 1036.1 hPa NNW 6.4 km/h 14.5 km/h 78 % 0.3 mm 432 W/m2
13:00 12.8 °C 8.9 °C 1036.1 hPa Calm   17.7 km/h 77 % 0.3 mm 223 W/m2
13:05 12.9 °C 9.1 °C 1036.1 hPa NNW 3.2 km/h 17.7 km/h 78 % 0.3 mm 195 W/m2
13:10 12.6 °C 8.4 °C 1036.1 hPa North 6.4 km/h 11.3 km/h 76 % 0.3 mm 197 W/m2
13:15 12.4 °C 8.8 °C 1036.1 hPa Calm   11.3 km/h 79 % 0.3 mm 186 W/m2
13:20 12.3 °C 8.4 °C 1036.1 hPa NNW 3.2 km/h 9.7 km/h 77 % 0.3 mm 142 W/m2
13:25 12.2 °C 8.5 °C 1035.8 hPa WNW 4.8 km/h 9.7 km/h 78 % 0.3 mm 172 W/m2
13:30 12.2 °C 8.8 °C 1035.8 hPa WNW 1.6 km/h 12.9 km/h 80 % 0.0 mm 188 W/m2
13:35 12.2 °C 9.0 °C 1035.8 hPa NW 3.2 km/h 12.9 km/h 81 % 0.0 mm 193 W/m2
13:40 12.7 °C 9.1 °C 1036.1 hPa NNW 3.2 km/h 11.3 km/h 79 % 0.0 mm 206 W/m2
13:45 12.8 °C 9.4 °C 1036.1 hPa NW 4.8 km/h 12.9 km/h 80 % 0.0 mm 207 W/m2
13:50 12.9 °C 9.1 °C 1035.8 hPa NNW 3.2 km/h 12.9 km/h 78 % 0.0 mm 207 W/m2
13:55 12.8 °C 9.5 °C 1035.8 hPa North 4.8 km/h 11.3 km/h 80 % 0.0 mm 158 W/m2
14:00 12.6 °C 8.6 °C 1035.8 hPa NNW 1.6 km/h 12.9 km/h 77 % 0.0 mm 120 W/m2
14:05 12.3 °C 9.0 °C 1035.8 hPa NW 6.4 km/h 12.9 km/h 80 % 0.0 mm 137 W/m2
14:10 12.3 °C 9.3 °C 1035.8 hPa WNW 1.6 km/h 8.0 km/h 82 % 0.0 mm 142 W/m2
14:15 12.3 °C 9.3 °C 1035.8 hPa Calm   9.7 km/h 82 % 0.0 mm 146 W/m2
14:20 12.3 °C 8.6 °C 1035.8 hPa Calm   9.7 km/h 78 % 0.0 mm 144 W/m2
14:25 12.3 °C 8.7 °C 1035.8 hPa NW 6.4 km/h 8.0 km/h 79 % 0.0 mm 125 W/m2
14:30 12.2 °C 8.3 °C 1035.8 hPa NW 3.2 km/h 8.0 km/h 77 % 0.0 mm 69 W/m2
14:35 12.0 °C 8.1 °C 1035.8 hPa WNW 3.2 km/h 8.0 km/h 77 % 0.0 mm 54 W/m2
14:40 11.8 °C 8.1 °C 1035.8 hPa Calm   8.0 km/h 78 % 0.0 mm 58 W/m2
14:45 11.7 °C 8.3 °C 1035.8 hPa NW 4.8 km/h 6.4 km/h 80 % 0.0 mm 70 W/m2
14:50 11.7 °C 8.5 °C 1035.8 hPa NW 1.6 km/h 8.0 km/h 81 % 0.0 mm 88 W/m2
14:55 11.7 °C 8.6 °C 1035.8 hPa Calm   8.0 km/h 81 % 0.0 mm 100 W/m2
15:00 11.8 °C 8.8 °C 1035.8 hPa NW 4.8 km/h 9.7 km/h 82 % 0.0 mm 116 W/m2
15:05 11.7 °C 8.7 °C 1035.8 hPa WNW 4.8 km/h 9.7 km/h 82 % 0.0 mm 93 W/m2
15:10 11.6 °C 8.8 °C 1035.8 hPa West 4.8 km/h 11.3 km/h 83 % 0.0 mm 72 W/m2
15:15 11.6 °C 8.8 °C 1035.8 hPa NW 3.2 km/h 11.3 km/h 83 % 0.0 mm 58 W/m2
15:20 11.5 °C 8.9 °C 1035.8 hPa NW 3.2 km/h 11.3 km/h 84 % 0.0 mm 58 W/m2
15:25 11.4 °C 8.8 °C 1035.8 hPa WNW 3.2 km/h 8.0 km/h 84 % 0.0 mm 79 W/m2
15:35 11.6 °C 8.8 °C 1035.8 hPa NW 1.6 km/h 6.4 km/h 83 % 0.0 mm 91 W/m2
15:40 11.7 °C 8.7 °C 1035.8 hPa NW 6.4 km/h 9.7 km/h 82 % 0.0 mm 51 W/m2
15:50 11.5 °C 8.5 °C 1035.8 hPa NW 4.8 km/h 8.0 km/h 82 % 0.0 mm 72 W/m2
15:55 11.4 °C 8.6 °C 1035.8 hPa Calm   8.0 km/h 83 % 0.0 mm 118 W/m2
16:00 11.6 °C 8.4 °C 1035.8 hPa West 3.2 km/h 8.0 km/h 81 % 0.0 mm 155 W/m2
16:05 11.7 °C 8.3 °C 1036.1 hPa WNW 3.2 km/h 8.0 km/h 80 % 0.0 mm 81 W/m2
16:10 11.6 °C 8.2 °C 1036.1 hPa WNW 6.4 km/h 8.0 km/h 80 % 0.0 mm 65 W/m2
16:15 11.4 °C 8.1 °C 1036.1 hPa WNW 3.2 km/h 8.0 km/h 80 % 0.0 mm 53 W/m2
16:20 11.3 °C 8.1 °C 1036.1 hPa WNW 3.2 km/h 8.0 km/h 81 % 0.0 mm 53 W/m2
16:25 11.3 °C 8.3 °C 1036.1 hPa WNW 4.8 km/h 8.0 km/h 82 % 0.0 mm 53 W/m2
16:30 11.3 °C 8.1 °C 1036.1 hPa NW 4.8 km/h 8.0 km/h 81 % 0.0 mm 46 W/m2
16:35 11.3 °C 8.2 °C 1036.1 hPa West 3.2 km/h 8.0 km/h 81 % 0.0 mm 39 W/m2
16:40 11.3 °C 8.3 °C 1036.1 hPa WNW 3.2 km/h 6.4 km/h 82 % 0.0 mm 32 W/m2
16:45 11.2 °C 8.1 °C 1036.1 hPa Calm   6.4 km/h 81 % 0.0 mm 26 W/m2
16:50 11.2 °C 8.2 °C 1036.1 hPa Calm   6.4 km/h 82 % 0.0 mm 21 W/m2
16:55 11.0 °C 8.0 °C 1036.1 hPa Calm   4.8 km/h 82 % 0.0 mm 18 W/m2
17:00 10.9 °C 8.0 °C 1036.1 hPa WNW 1.6 km/h 6.4 km/h 82 % 0.0 mm 14 W/m2
17:05 10.8 °C 7.9 °C 1036.5 hPa Calm   6.4 km/h 82 % 0.0 mm 9 W/m2
17:10 10.7 °C 7.9 °C 1036.5 hPa Calm   4.8 km/h 83 % 0.0 mm 5 W/m2
17:15 10.6 °C 7.8 °C 1036.5 hPa Calm   4.8 km/h 83 % 0.0 mm 0 W/m2
17:20 10.4 °C 7.9 °C 1036.5 hPa Calm   4.8 km/h 84 % 0.0 mm 0 W/m2
17:25 10.4 °C 7.8 °C 1036.5 hPa WNW 1.6 km/h 4.8 km/h 84 % 0.0 mm 0 W/m2
17:30 10.3 °C 7.9 °C 1036.5 hPa WNW 3.2 km/h 6.4 km/h 85 % 0.0 mm 0 W/m2
17:35 10.4 °C 8.1 °C 1036.5 hPa WNW 3.2 km/h 8.0 km/h 86 % 0.0 mm 0 W/m2
17:40 10.4 °C 8.1 °C 1036.5 hPa WNW 3.2 km/h 9.7 km/h 86 % 0.0 mm 0 W/m2
17:45 10.4 °C 8.1 °C 1036.5 hPa WNW 3.2 km/h 9.7 km/h 86 % 0.0 mm 0 W/m2
17:50 10.3 °C 8.2 °C 1036.5 hPa NW 1.6 km/h 8.0 km/h 87 % 0.0 mm 0 W/m2
17:55 10.2 °C 8.2 °C 1036.5 hPa NW 6.4 km/h 8.0 km/h 87 % 0.0 mm 0 W/m2
18:00 10.1 °C 8.2 °C 1036.5 hPa NW 6.4 km/h 8.0 km/h 88 % 0.0 mm 0 W/m2
18:10 10.0 °C 8.3 °C 1036.8 hPa Calm   6.4 km/h 89 % 0.0 mm 0 W/m2
18:15 10.1 °C 8.3 °C 1036.8 hPa Calm   6.4 km/h 89 % 0.0 mm 0 W/m2
18:20 10.1 °C 8.4 °C 1036.8 hPa NNW 1.6 km/h 4.8 km/h 89 % 0.0 mm 0 W/m2
18:25 10.1 °C 8.4 °C 1036.8 hPa NNW 3.2 km/h 4.8 km/h 89 % 0.0 mm 0 W/m2
18:35 10.1 °C 8.3 °C 1036.8 hPa Calm   4.8 km/h 89 % 0.0 mm 0 W/m2
18:40 9.9 °C 8.2 °C 1036.8 hPa Calm   4.8 km/h 89 % 0.0 mm 0 W/m2
18:45 9.8 °C 8.2 °C 1036.8 hPa Calm   4.8 km/h 90 % 0.0 mm 0 W/m2
18:50 9.7 °C 8.1 °C 1037.1 hPa NNW 1.6 km/h 4.8 km/h 90 % 0.0 mm 0 W/m2
18:55 9.6 °C 8.2 °C 1037.1 hPa Calm   4.8 km/h 91 % 0.0 mm 0 W/m2
19:00 9.7 °C 8.3 °C 1037.1 hPa Calm   4.8 km/h 91 % 0.0 mm 0 W/m2
19:05 9.7 °C 8.3 °C 1037.1 hPa Calm   4.8 km/h 91 % 0.0 mm 0 W/m2
19:10 9.6 °C 8.2 °C 1037.1 hPa Calm   4.8 km/h 91 % 0.0 mm 0 W/m2
19:15 9.5 °C 8.1 °C 1037.1 hPa NW 1.6 km/h 4.8 km/h 91 % 0.0 mm 0 W/m2
19:20 9.5 °C 8.3 °C 1037.1 hPa West 4.8 km/h 4.8 km/h 92 % 0.0 mm 0 W/m2
19:25 9.5 °C 8.1 °C 1037.5 hPa Calm   4.8 km/h 91 % 0.0 mm 0 W/m2
19:30 9.2 °C 7.8 °C 1037.5 hPa Calm   4.8 km/h 91 % 0.0 mm 0 W/m2
19:35 9.1 °C 7.8 °C 1037.5 hPa Calm   4.8 km/h 92 % 0.0 mm 0 W/m2
19:40 8.9 °C 7.7 °C 1037.5 hPa Calm   4.8 km/h 92 % 0.0 mm 0 W/m2
19:45 8.9 °C 7.9 °C 1037.5 hPa Calm   6.4 km/h 93 % 0.0 mm 0 W/m2
19:50 8.7 °C 7.5 °C 1037.5 hPa NW 3.2 km/h 6.4 km/h 92 % 0.0 mm 0 W/m2
19:55 8.2 °C 7.2 °C 1037.5 hPa WNW 3.2 km/h 8.0 km/h 93 % 0.0 mm 0 W/m2
20:00 8.1 °C 7.0 °C 1037.5 hPa WNW 3.2 km/h 8.0 km/h 93 % 0.0 mm 0 W/m2
20:05 7.8 °C 6.7 °C 1037.5 hPa Calm   6.4 km/h 93 % 0.0 mm 0 W/m2
20:10 7.4 °C 6.5 °C 1037.5 hPa Calm   3.2 km/h 94 % 0.0 mm 0 W/m2
20:15 7.2 °C 6.3 °C 1037.5 hPa Calm   1.6 km/h 94 % 0.0 mm 0 W/m2
20:20 7.1 °C 6.2 °C 1037.5 hPa Calm   1.6 km/h 94 % 0.0 mm 0 W/m2
20:25 6.8 °C 6.1 °C 1037.5 hPa Calm   1.6 km/h 95 % 0.0 mm 0 W/m2
20:30 6.7 °C 6.0 °C 1037.5 hPa Calm     95 % 0.0 mm 0 W/m2
20:35 6.6 °C 5.8 °C 1037.5 hPa Calm     95 % 0.0 mm 0 W/m2
20:40 6.3 °C 5.6 °C 1037.5 hPa Calm     95 % 0.0 mm 0 W/m2
20:45 6.2 °C 5.4 °C 1037.5 hPa Calm     95 % 0.0 mm 0 W/m2
20:50 6.1 °C 5.3 °C 1037.5 hPa Calm     95 % 0.0 mm 0 W/m2
20:55 6.0 °C 5.3 °C 1037.5 hPa Calm     95 % 0.0 mm 0 W/m2
21:00 5.8 °C 5.2 °C 1037.5 hPa Calm     96 % 0.0 mm 0 W/m2
21:05 5.8 °C 5.2 °C 1037.5 hPa Calm     96 % 0.0 mm 0 W/m2
21:10 5.7 °C 5.1 °C 1037.8 hPa Calm     96 % 0.0 mm 0 W/m2
21:15 5.4 °C 4.8 °C 1037.5 hPa Calm     96 % 0.0 mm 0 W/m2
21:20 5.3 °C 4.7 °C 1037.8 hPa Calm     96 % 0.0 mm 0 W/m2
21:25 5.2 °C 4.6 °C 1037.8 hPa Calm     96 % 0.0 mm 0 W/m2
21:30 5.1 °C 4.5 °C 1037.8 hPa Calm     96 % 0.0 mm 0 W/m2
21:35 5.1 °C 4.5 °C 1037.8 hPa Calm     96 % 0.0 mm 0 W/m2
21:40 4.9 °C 4.3 °C 1037.8 hPa Calm     96 % 0.0 mm 0 W/m2
21:45 4.8 °C 4.2 °C 1037.8 hPa Calm     96 % 0.0 mm 0 W/m2
21:50 4.7 °C 4.1 °C 1037.8 hPa Calm     96 % 0.0 mm 0 W/m2
21:55 4.4 °C 3.9 °C 1037.8 hPa Calm     96 % 0.0 mm 0 W/m2
22:00 4.3 °C 3.7 °C 1037.8 hPa Calm     96 % 0.0 mm 0 W/m2
22:05 4.2 °C 3.6 °C 1037.8 hPa Calm     96 % 0.0 mm 0 W/m2
22:10 4.2 °C 3.6 °C 1037.8 hPa Calm     96 % 0.0 mm 0 W/m2
22:15 4.0 °C 3.4 °C 1037.8 hPa Calm     96 % 0.0 mm 0 W/m2
22:20 3.9 °C 3.3 °C 1037.8 hPa Calm     96 % 0.0 mm 0 W/m2
22:25 3.8 °C 3.2 °C 1037.8 hPa Calm     96 % 0.0 mm 0 W/m2
22:30 3.6 °C 3.0 °C 1037.8 hPa Calm     96 % 0.0 mm 0 W/m2
22:35 3.4 °C 2.9 °C 1037.8 hPa Calm     96 % 0.0 mm 0 W/m2
22:40 3.5 °C 3.1 °C 1038.1 hPa Calm     97 % 0.0 mm 0 W/m2
22:45 3.6 °C 3.0 °C 1038.1 hPa Calm     96 % 0.0 mm 0 W/m2
22:50 3.6 °C 3.2 °C 1038.1 hPa Calm     97 % 0.0 mm 0 W/m2
22:55 3.8 °C 3.3 °C 1038.1 hPa Calm     97 % 0.0 mm 0 W/m2
23:00 4.0 °C 3.6 °C 1038.1 hPa Calm     97 % 0.0 mm 0 W/m2
23:05 4.1 °C 3.7 °C 1038.1 hPa Calm     97 % 0.0 mm 0 W/m2
23:15 4.3 °C 3.9 °C 1038.1 hPa Calm     97 % 0.0 mm 0 W/m2
23:20 4.6 °C 4.1 °C 1038.1 hPa Calm     97 % 0.0 mm 0 W/m2
23:25 4.7 °C 4.2 °C 1038.1 hPa Calm     97 % 0.0 mm 0 W/m2
23:30 4.7 °C 4.3 °C 1038.1 hPa Calm     97 % 0.0 mm 0 W/m2
23:35 4.8 °C 4.4 °C 1038.1 hPa Calm     97 % 0.0 mm 0 W/m2
23:40 5.0 °C 4.6 °C 1038.1 hPa Calm     97 % 0.0 mm 0 W/m2
23:45 5.1 °C 4.6 °C 1038.1 hPa Calm     97 % 0.0 mm 0 W/m2
23:50 5.0 °C 4.6 °C 1038.1 hPa Calm     97 % 0.0 mm 0 W/m2
23:55 5.3 °C 4.8 °C 1038.1 hPa Calm     97 % 0.0 mm 0 W/m2
Avec l'autorisation de Weather Underground - 1.75 mb